createdAt,value
2023-03-17T00:01:06.189Z,48.07
2023-03-17T00:04:12.651Z,47.94
2023-03-17T00:07:17.514Z,48.08
2023-03-17T00:10:22.202Z,47.95
2023-03-17T00:13:24.621Z,47.81
2023-03-17T00:16:28.154Z,47.79
2023-03-17T00:19:33.247Z,47.81
2023-03-17T00:22:35.162Z,47.71
2023-03-17T00:25:37.303Z,47.82
2023-03-17T00:28:39.570Z,47.99
2023-03-17T00:31:45.234Z,47.92
2023-03-17T00:34:50.241Z,48.00
2023-03-17T00:37:54.026Z,47.96
2023-03-17T00:40:57.639Z,48.17
2023-03-17T00:43:59.812Z,48.28
2023-03-17T00:47:02.198Z,48.22
2023-03-17T00:50:05.594Z,48.21
2023-03-17T00:53:12.725Z,48.22
2023-03-17T00:56:20.792Z,48.24
2023-03-17T00:59:52.382Z,48.24
2023-03-17T01:02:56.409Z,48.26
2023-03-17T01:05:59.649Z,48.23
2023-03-17T01:09:01.981Z,48.31
2023-03-17T01:12:04.193Z,48.41
2023-03-17T01:15:07.256Z,48.49
2023-03-17T01:18:12.019Z,48.52
2023-03-17T01:21:14.358Z,48.51
2023-03-17T01:24:16.368Z,48.44
2023-03-17T01:27:19.318Z,48.49
2023-03-17T01:30:29.031Z,48.48
2023-03-17T01:33:31.610Z,48.49
2023-03-17T01:36:34.371Z,48.50
2023-03-17T01:39:36.710Z,48.55
2023-03-17T01:42:39.975Z,48.62
2023-03-17T01:46:13.364Z,48.68
2023-03-17T01:49:15.707Z,48.74
2023-03-17T01:52:22.027Z,48.72
2023-03-17T01:55:24.112Z,48.79
2023-03-17T01:58:26.990Z,48.79
2023-03-17T02:01:54.299Z,48.93
2023-03-17T02:04:58.115Z,48.98
2023-03-17T02:08:00.479Z,49.09
2023-03-17T02:11:05.174Z,49.05
2023-03-17T02:14:09.005Z,49.04
2023-03-17T02:17:11.240Z,49.16
2023-03-17T02:20:16.111Z,49.21
2023-03-17T02:23:23.475Z,49.14
2023-03-17T02:26:26.650Z,49.31
2023-03-17T02:29:28.931Z,49.28
2023-03-17T02:32:30.905Z,49.28
2023-03-17T02:35:33.319Z,49.39
2023-03-17T02:38:36.049Z,49.41
2023-03-17T02:41:38.530Z,49.43
2023-03-17T02:44:40.522Z,49.44
2023-03-17T02:47:43.150Z,49.46
2023-03-17T02:50:45.615Z,49.45
2023-03-17T02:53:48.124Z,49.47
2023-03-17T02:56:49.994Z,49.53
2023-03-17T02:59:52.574Z,49.56
2023-03-17T03:02:54.840Z,49.66
2023-03-17T03:05:58.273Z,49.61
2023-03-17T03:09:00.259Z,49.66
2023-03-17T03:12:02.939Z,49.73
2023-03-17T03:15:05.575Z,49.76
2023-03-17T03:18:07.771Z,49.76
2023-03-17T03:21:10.760Z,49.84
2023-03-17T03:24:12.913Z,49.89
2023-03-17T03:27:14.775Z,49.98
2023-03-17T03:30:16.998Z,49.98
2023-03-17T03:33:18.812Z,50.04
2023-03-17T03:36:21.839Z,50.05
2023-03-17T03:39:23.812Z,50.17
2023-03-17T03:42:26.141Z,50.26
2023-03-17T03:45:28.151Z,50.36
2023-03-17T03:48:30.440Z,50.34
2023-03-17T03:51:32.239Z,50.34
2023-03-17T03:54:34.627Z,50.41
2023-03-17T03:57:36.584Z,50.49
2023-03-17T04:00:39.038Z,50.52
2023-03-17T04:03:41.380Z,50.51
2023-03-17T04:06:43.661Z,50.62
2023-03-17T04:09:45.721Z,50.34
2023-03-17T04:12:47.986Z,50.24
2023-03-17T04:15:50.292Z,50.30
2023-03-17T04:18:52.721Z,50.37
2023-03-17T04:21:54.908Z,50.38
2023-03-17T04:24:57.340Z,50.01
2023-03-17T04:27:59.441Z,50.73
2023-03-17T04:31:01.982Z,50.81
2023-03-17T04:34:03.876Z,50.82
2023-03-17T04:37:07.238Z,50.79
2023-03-17T04:40:10.841Z,50.68
2023-03-17T04:43:13.158Z,50.11
2023-03-17T04:46:15.171Z,50.62
2023-03-17T04:49:17.494Z,50.76
2023-03-17T04:52:19.480Z,50.16
2023-03-17T04:55:21.791Z,50.92
2023-03-17T04:58:30.865Z,50.95
2023-03-17T05:01:33.649Z,51.00
2023-03-17T05:04:36.353Z,51.17
2023-03-17T05:07:38.646Z,51.12
2023-03-17T05:10:40.737Z,51.16
2023-03-17T05:13:43.104Z,51.34
2023-03-17T05:16:49.577Z,51.23
2023-03-17T05:19:51.896Z,50.56
2023-03-17T05:22:53.813Z,51.57
2023-03-17T05:25:56.095Z,51.98
2023-03-17T05:28:58.055Z,51.82
2023-03-17T05:32:00.466Z,52.03
2023-03-17T05:35:03.527Z,51.66
2023-03-17T05:38:05.666Z,51.25
2023-03-17T05:41:07.866Z,51.13
2023-03-17T05:44:10.652Z,51.63
2023-03-17T05:47:12.613Z,51.47
2023-03-17T05:50:14.998Z,51.20
2023-03-17T05:53:17.539Z,51.11
2023-03-17T05:56:19.660Z,51.18
2023-03-17T05:59:22.373Z,51.02
2023-03-17T06:02:25.480Z,50.92
2023-03-17T06:05:27.630Z,50.98
2023-03-17T06:08:29.872Z,50.88
2023-03-17T06:11:31.906Z,50.90
2023-03-17T06:14:34.296Z,50.97
2023-03-17T06:17:37.345Z,50.83
2023-03-17T06:20:39.619Z,50.95
2023-03-17T06:23:41.565Z,51.00
2023-03-17T06:26:43.921Z,50.98
2023-03-17T06:29:46.125Z,50.99
2023-03-17T06:32:48.495Z,51.02
2023-03-17T06:35:51.815Z,50.70
2023-03-17T06:38:54.166Z,50.56
2023-03-17T06:41:56.324Z,50.51
2023-03-17T06:44:58.782Z,50.44
2023-03-17T06:48:01.770Z,50.45
2023-03-17T06:51:04.257Z,50.49
2023-03-17T06:54:07.992Z,50.44
2023-03-17T06:57:10.596Z,50.42
2023-03-17T07:00:21.211Z,50.49
2023-03-17T07:03:24.215Z,50.55
2023-03-17T07:06:26.416Z,50.71
2023-03-17T07:09:29.497Z,50.71
2023-03-17T07:12:32.988Z,50.59
2023-03-17T07:15:36.057Z,50.65
2023-03-17T07:18:41.101Z,50.66
2023-03-17T07:21:44.548Z,50.67
2023-03-17T07:24:49.276Z,50.81
2023-03-17T07:27:52.064Z,50.53
2023-03-17T07:30:54.603Z,51.06
2023-03-17T07:33:57.681Z,50.92
2023-03-17T07:36:59.922Z,50.80
2023-03-17T07:40:05.237Z,50.77
2023-03-17T07:43:07.674Z,50.73
2023-03-17T07:46:10.392Z,50.72
2023-03-17T07:49:12.830Z,50.70
2023-03-17T07:52:15.192Z,50.90
2023-03-17T07:55:18.075Z,51.34
2023-03-17T07:58:20.383Z,51.26
2023-03-17T08:01:23.452Z,51.40
2023-03-17T08:04:26.683Z,50.82
2023-03-17T08:07:31.201Z,51.56
2023-03-17T08:10:34.108Z,51.17
2023-03-17T08:13:36.438Z,50.79
2023-03-17T08:16:39.364Z,50.59
2023-03-17T08:19:41.347Z,50.73
2023-03-17T08:22:44.152Z,50.75
2023-03-17T08:25:46.909Z,51.06
2023-03-17T08:28:50.371Z,50.47
2023-03-17T08:31:52.630Z,50.86
2023-03-17T08:34:55.310Z,51.18
2023-03-17T08:37:57.400Z,50.38
2023-03-17T08:41:03.107Z,51.53
2023-03-17T08:44:05.510Z,51.31
2023-03-17T08:47:08.099Z,50.86
2023-03-17T08:50:15.576Z,50.79
2023-03-17T08:53:17.899Z,50.78
2023-03-17T08:56:22.569Z,50.63
2023-03-17T08:59:25.020Z,50.22
2023-03-17T09:02:28.733Z,50.48
2023-03-17T09:05:32.009Z,51.60
2023-03-17T09:08:38.781Z,51.70
2023-03-17T09:11:41.008Z,51.69
2023-03-17T09:14:44.964Z,51.52
2023-03-17T09:17:47.820Z,50.86
2023-03-17T09:20:49.910Z,51.34
2023-03-17T09:23:52.108Z,51.53
2023-03-17T09:26:54.215Z,51.31
2023-03-17T09:29:56.867Z,51.41
2023-03-17T09:32:59.069Z,51.51
2023-03-17T09:36:01.593Z,51.61
2023-03-17T09:39:04.050Z,51.06
2023-03-17T09:42:39.028Z,50.98
2023-03-17T09:45:43.740Z,50.88
2023-03-17T09:48:58.034Z,50.94
2023-03-17T09:51:59.963Z,50.91
2023-03-17T09:55:05.322Z,51.11
2023-03-17T09:58:11.872Z,50.85
2023-03-17T10:01:14.445Z,50.75
2023-03-17T10:04:18.940Z,50.61
2023-03-17T10:07:51.946Z,50.45
2023-03-17T10:10:56.953Z,50.43
2023-03-17T10:14:23.523Z,50.31
2023-03-17T10:17:42.239Z,50.32
2023-03-17T10:20:52.366Z,50.45
2023-03-17T10:23:57.582Z,50.78
2023-03-17T10:27:04.871Z,50.76
2023-03-17T10:30:18.451Z,50.65
2023-03-17T10:33:21.625Z,50.36
2023-03-17T10:36:37.743Z,50.09
2023-03-17T10:39:51.820Z,50.14
2023-03-17T10:43:11.165Z,50.07
2023-03-17T10:46:23.337Z,49.67
2023-03-17T10:49:26.711Z,49.51
2023-03-17T10:52:32.787Z,49.21
2023-03-17T10:55:42.673Z,49.29
2023-03-17T10:58:49.103Z,49.07
2023-03-17T11:01:54.129Z,48.88
2023-03-17T11:05:03.678Z,48.84
2023-03-17T11:08:18.832Z,48.80
2023-03-17T11:11:36.212Z,48.98
2023-03-17T11:14:43.574Z,48.88
2023-03-17T11:17:59.001Z,49.16
2023-03-17T11:21:09.725Z,49.41
2023-03-17T11:24:27.984Z,49.57
2023-03-17T11:27:34.952Z,49.76
2023-03-17T11:30:42.752Z,49.47
2023-03-17T11:34:08.844Z,49.22
2023-03-17T11:37:20.143Z,49.25
2023-03-17T11:40:32.730Z,49.03
2023-03-17T11:44:10.730Z,48.80
2023-03-17T11:47:32.055Z,48.74
2023-03-17T11:50:43.524Z,48.75
2023-03-17T11:54:09.883Z,48.99
2023-03-17T11:57:17.576Z,49.09
2023-03-17T12:00:23.729Z,49.07
2023-03-17T12:03:48.710Z,49.01
2023-03-17T12:07:16.305Z,48.95
2023-03-17T12:10:34.559Z,49.01
2023-03-17T12:13:53.374Z,49.08
2023-03-17T12:17:14.055Z,48.98
2023-03-17T12:20:54.374Z,48.93
2023-03-17T12:24:17.355Z,48.91
2023-03-17T12:27:32.689Z,48.76
2023-03-17T12:30:52.550Z,48.84
2023-03-17T12:34:09.496Z,48.80
2023-03-17T12:37:14.433Z,48.95
2023-03-17T12:40:22.024Z,48.90
2023-03-17T12:43:37.062Z,48.76
2023-03-17T12:47:07.305Z,49.55
2023-03-17T12:50:19.161Z,48.84
2023-03-17T12:53:29.495Z,48.84
2023-03-17T12:56:51.915Z,48.86
2023-03-17T13:00:07.762Z,50.43
2023-03-17T13:03:23.890Z,49.52
2023-03-17T13:06:25.988Z,49.04
2023-03-17T13:09:31.828Z,49.19
2023-03-17T13:12:40.444Z,48.95
2023-03-17T13:15:42.791Z,49.90
2023-03-17T13:18:49.474Z,49.66
2023-03-17T13:22:17.756Z,49.85
2023-03-17T13:25:35.614Z,49.65
2023-03-17T13:28:38.248Z,49.52
2023-03-17T13:31:40.336Z,49.68
2023-03-17T13:35:20.290Z,49.48
2023-03-17T13:38:41.064Z,49.40
2023-03-17T13:42:05.469Z,51.11
2023-03-17T13:45:13.953Z,50.84
2023-03-17T13:48:37.606Z,50.98
2023-03-17T13:51:52.753Z,51.66
2023-03-17T13:55:03.247Z,50.68
2023-03-17T13:58:11.112Z,51.30
2023-03-17T14:01:15.491Z,50.94
2023-03-17T14:04:21.529Z,51.19
2023-03-17T14:07:27.522Z,51.06
2023-03-17T14:10:32.406Z,50.68
2023-03-17T14:13:56.284Z,50.81
2023-03-17T14:17:05.180Z,50.95
2023-03-17T14:20:22.722Z,50.35
2023-03-17T14:23:25.876Z,50.18
2023-03-17T14:26:31.281Z,50.06
2023-03-17T14:29:34.009Z,50.26
2023-03-17T14:32:36.464Z,50.81
2023-03-17T14:35:42.253Z,50.55
2023-03-17T14:38:53.803Z,50.66
2023-03-17T14:42:01.848Z,50.03
2023-03-17T14:45:08.361Z,49.50
2023-03-17T14:48:14.943Z,49.73
2023-03-17T14:51:23.170Z,50.69
2023-03-17T14:54:33.489Z,49.99
2023-03-17T14:57:38.720Z,49.64
2023-03-17T15:00:47.409Z,50.36
2023-03-17T15:04:07.914Z,49.96
2023-03-17T15:07:36.819Z,49.71
2023-03-17T15:10:43.083Z,49.47
2023-03-17T15:13:45.716Z,49.29
2023-03-17T15:16:54.858Z,49.23
2023-03-17T15:20:01.421Z,49.25
2023-03-17T15:23:14.350Z,49.29
2023-03-17T15:26:30.334Z,49.60
2023-03-17T15:29:33.220Z,50.29
2023-03-17T15:32:35.683Z,50.15
2023-03-17T15:35:38.011Z,50.14
2023-03-17T15:38:40.382Z,50.36
2023-03-17T15:41:42.776Z,50.51
2023-03-17T15:44:45.331Z,50.52
2023-03-17T15:47:47.837Z,50.51
2023-03-17T15:50:51.159Z,50.34
2023-03-17T15:53:53.553Z,50.22
2023-03-17T15:56:55.784Z,50.29
2023-03-17T15:59:58.059Z,50.38
2023-03-17T16:03:09.182Z,51.27
2023-03-17T16:06:23.126Z,51.30
2023-03-17T16:09:26.097Z,51.30
2023-03-17T16:12:30.377Z,51.21
2023-03-17T16:15:35.418Z,51.20
2023-03-17T16:18:38.649Z,51.19
2023-03-17T16:21:41.675Z,51.17
2023-03-17T16:24:44.776Z,51.11
2023-03-17T16:27:48.615Z,51.11
2023-03-17T16:30:51.903Z,51.19
2023-03-17T16:33:55.959Z,51.12
2023-03-17T16:36:58.675Z,51.39
2023-03-17T16:40:00.925Z,51.32
2023-03-17T16:43:12.858Z,51.28
2023-03-17T16:46:20.095Z,51.34
2023-03-17T16:49:23.138Z,51.42
2023-03-17T16:52:26.027Z,51.39
2023-03-17T16:55:29.369Z,51.45
2023-03-17T16:58:35.045Z,51.47
2023-03-17T17:01:37.683Z,51.55
2023-03-17T17:04:42.850Z,52.20
2023-03-17T17:07:46.206Z,52.06
2023-03-17T17:10:48.337Z,52.07
2023-03-17T17:13:52.456Z,51.98
2023-03-17T17:16:55.159Z,52.01
2023-03-17T17:19:58.384Z,52.05
2023-03-17T17:23:04.992Z,52.12
2023-03-17T17:26:07.958Z,52.09
2023-03-17T17:29:10.619Z,52.01
2023-03-17T17:32:13.549Z,51.84
2023-03-17T17:35:16.586Z,51.73
2023-03-17T17:38:28.360Z,51.77
2023-03-17T17:41:32.545Z,51.76
2023-03-17T17:44:37.550Z,51.52
2023-03-17T17:47:42.126Z,51.73
2023-03-17T17:50:51.056Z,51.67
2023-03-17T17:53:53.416Z,51.56
2023-03-17T17:56:56.230Z,51.63
2023-03-17T17:59:58.591Z,51.64
2023-03-17T18:03:01.446Z,51.57
2023-03-17T18:06:03.502Z,51.51
2023-03-17T18:09:06.332Z,51.56
2023-03-17T18:12:09.005Z,51.53
2023-03-17T18:15:12.054Z,51.58
2023-03-17T18:18:14.249Z,51.57
2023-03-17T18:21:18.926Z,51.66
2023-03-17T18:24:21.376Z,51.73
2023-03-17T18:27:24.059Z,51.79
2023-03-17T18:30:29.716Z,51.81
2023-03-17T18:33:33.392Z,51.90
2023-03-17T18:36:35.856Z,51.95
2023-03-17T18:39:41.160Z,51.94
2023-03-17T18:42:43.509Z,51.94
2023-03-17T18:45:46.032Z,51.97
2023-03-17T18:48:48.355Z,51.96
2023-03-17T18:51:51.919Z,51.99
2023-03-17T18:54:54.238Z,52.02
2023-03-17T18:57:57.236Z,52.12
2023-03-17T19:01:01.738Z,52.15
2023-03-17T19:04:06.127Z,52.22
2023-03-17T19:07:08.794Z,52.16
2023-03-17T19:10:12.399Z,52.22
2023-03-17T19:13:15.317Z,52.53
2023-03-17T19:16:19.914Z,52.54
2023-03-17T19:19:24.343Z,52.54
2023-03-17T19:22:27.233Z,52.61
2023-03-17T19:25:29.833Z,54.02
2023-03-17T19:28:33.695Z,55.04
2023-03-17T19:31:42.076Z,58.59
2023-03-17T19:34:48.035Z,59.89
2023-03-17T19:37:50.176Z,61.09
2023-03-17T19:40:56.091Z,59.27
2023-03-17T19:44:02.553Z,57.55
2023-03-17T19:47:08.506Z,56.44
2023-03-17T19:50:12.194Z,55.80
2023-03-17T19:53:39.930Z,55.78
2023-03-17T19:56:42.680Z,55.15
2023-03-17T19:59:50.999Z,54.91
2023-03-17T20:02:58.509Z,55.00
2023-03-17T20:06:05.993Z,56.17
2023-03-17T20:09:09.402Z,56.08
2023-03-17T20:12:11.952Z,55.44
2023-03-17T20:15:17.858Z,55.02
2023-03-17T20:18:20.921Z,54.70
2023-03-17T20:21:23.237Z,54.65
2023-03-17T20:24:27.251Z,55.35
2023-03-17T20:27:30.297Z,55.73
2023-03-17T20:30:33.689Z,55.03
2023-03-17T20:33:36.618Z,54.74
2023-03-17T20:36:42.594Z,54.76
2023-03-17T20:39:44.828Z,54.19
2023-03-17T20:42:47.399Z,53.85
2023-03-17T20:45:51.143Z,53.64
2023-03-17T20:48:59.153Z,53.53
2023-03-17T20:52:01.876Z,53.35
2023-03-17T20:55:07.297Z,53.33
2023-03-17T20:58:11.961Z,53.27
2023-03-17T21:01:20.865Z,53.29
2023-03-17T21:04:23.908Z,53.28
2023-03-17T21:07:26.948Z,53.46
2023-03-17T21:10:29.807Z,53.72
2023-03-17T21:13:33.378Z,53.79
2023-03-17T21:16:38.221Z,53.77
2023-03-17T21:19:42.158Z,53.85
2023-03-17T21:22:46.164Z,53.83
2023-03-17T21:25:53.242Z,53.61
2023-03-17T21:28:56.718Z,53.47
2023-03-17T21:32:03.313Z,53.27
2023-03-17T21:35:08.104Z,52.89
2023-03-17T21:38:11.308Z,52.48
2023-03-17T21:41:30.763Z,51.90
2023-03-17T21:44:36.092Z,52.05
2023-03-17T21:47:40.481Z,52.06
2023-03-17T21:50:44.245Z,52.26
2023-03-17T21:53:47.162Z,52.43
2023-03-17T21:56:50.116Z,52.57
2023-03-17T21:59:53.268Z,52.63
2023-03-17T22:02:56.117Z,52.73
2023-03-17T22:06:00.299Z,52.66
2023-03-17T22:09:05.070Z,52.39
2023-03-17T22:12:08.407Z,52.30
2023-03-17T22:15:12.316Z,52.22
2023-03-17T22:18:14.604Z,52.34
2023-03-17T22:21:17.677Z,52.49
2023-03-17T22:24:19.966Z,52.53
2023-03-17T22:27:22.999Z,52.61
2023-03-17T22:30:25.609Z,52.54
2023-03-17T22:33:28.810Z,52.47
2023-03-17T22:36:32.150Z,52.32
2023-03-17T22:39:35.952Z,52.37
2023-03-17T22:42:38.787Z,51.88
2023-03-17T22:45:41.214Z,51.85
2023-03-17T22:48:44.148Z,51.49
2023-03-17T22:51:48.171Z,51.57
2023-03-17T22:54:50.704Z,51.45
2023-03-17T22:57:53.267Z,51.41
2023-03-17T23:00:56.683Z,51.28
2023-03-17T23:03:59.826Z,51.56
2023-03-17T23:07:02.040Z,51.65
2023-03-17T23:10:08.343Z,51.70
2023-03-17T23:13:13.390Z,51.67
2023-03-17T23:16:17.432Z,51.74
2023-03-17T23:19:19.715Z,51.81
2023-03-17T23:22:24.669Z,51.85
2023-03-17T23:25:27.074Z,51.79
2023-03-17T23:28:32.974Z,51.59
2023-03-17T23:31:36.999Z,51.59
2023-03-17T23:34:40.606Z,51.62
2023-03-17T23:37:43.132Z,51.83
2023-03-17T23:40:50.292Z,52.03
2023-03-17T23:43:52.353Z,52.21
2023-03-17T23:46:55.190Z,52.23
2023-03-17T23:49:57.718Z,52.27
2023-03-17T23:53:01.277Z,52.27
2023-03-17T23:56:03.955Z,52.37
2023-03-17T23:59:09.133Z,52.37
